sensor_id;sensor_type;location;lat;lon;timestamp;P1;durP1;ratioP1;P2;durP2;ratioP2
39218;SDS011;24934;52.752;6.964;2023-08-01T00:01:31;35.20;;;27.63;;
39218;SDS011;24934;52.752;6.964;2023-08-01T00:03:57;35.83;;;28.83;;
39218;SDS011;24934;52.752;6.964;2023-08-01T00:06:23;38.67;;;28.48;;
39218;SDS011;24934;52.752;6.964;2023-08-01T00:08:50;35.28;;;28.10;;
39218;SDS011;24934;52.752;6.964;2023-08-01T00:11:16;33.63;;;28.77;;
39218;SDS011;24934;52.752;6.964;2023-08-01T00:13:42;38.65;;;28.77;;
39218;SDS011;24934;52.752;6.964;2023-08-01T00:16:08;41.92;;;30.20;;
39218;SDS011;24934;52.752;6.964;2023-08-01T00:18:37;38.83;;;29.63;;
39218;SDS011;24934;52.752;6.964;2023-08-01T00:21:03;36.88;;;31.05;;
39218;SDS011;24934;52.752;6.964;2023-08-01T00:23:31;38.25;;;29.08;;
39218;SDS011;24934;52.752;6.964;2023-08-01T00:25:57;49.55;;;30.65;;
39218;SDS011;24934;52.752;6.964;2023-08-01T00:28:22;46.10;;;31.35;;
39218;SDS011;24934;52.752;6.964;2023-08-01T00:30:48;42.10;;;30.17;;
39218;SDS011;24934;52.752;6.964;2023-08-01T00:33:14;38.03;;;31.52;;
39218;SDS011;24934;52.752;6.964;2023-08-01T00:35:40;40.42;;;32.33;;
39218;SDS011;24934;52.752;6.964;2023-08-01T00:38:06;45.83;;;31.58;;
39218;SDS011;24934;52.752;6.964;2023-08-01T00:40:31;41.28;;;34.67;;
39218;SDS011;24934;52.752;6.964;2023-08-01T00:42:58;44.03;;;36.80;;
39218;SDS011;24934;52.752;6.964;2023-08-01T00:45:24;47.17;;;40.15;;
39218;SDS011;24934;52.752;6.964;2023-08-01T00:47:54;51.05;;;40.53;;
39218;SDS011;24934;52.752;6.964;2023-08-01T00:50:20;46.30;;;38.53;;
39218;SDS011;24934;52.752;6.964;2023-08-01T00:52:47;45.17;;;38.50;;
39218;SDS011;24934;52.752;6.964;2023-08-01T00:55:14;49.33;;;36.60;;
39218;SDS011;24934;52.752;6.964;2023-08-01T00:57:40;42.15;;;36.10;;
39218;SDS011;24934;52.752;6.964;2023-08-01T01:00:06;48.20;;;34.53;;
39218;SDS011;24934;52.752;6.964;2023-08-01T01:02:33;42.70;;;34.70;;
39218;SDS011;24934;52.752;6.964;2023-08-01T01:04:59;49.67;;;36.30;;
39218;SDS011;24934;52.752;6.964;2023-08-01T01:07:26;51.00;;;36.20;;
39218;SDS011;24934;52.752;6.964;2023-08-01T01:09:52;44.00;;;35.50;;
39218;SDS011;24934;52.752;6.964;2023-08-01T01:12:18;44.15;;;34.72;;
39218;SDS011;24934;52.752;6.964;2023-08-01T01:14:43;43.05;;;35.42;;
39218;SDS011;24934;52.752;6.964;2023-08-01T01:17:09;39.92;;;34.28;;
39218;SDS011;24934;52.752;6.964;2023-08-01T01:19:35;38.85;;;34.60;;
39218;SDS011;24934;52.752;6.964;2023-08-01T01:22:02;41.78;;;35.67;;
39218;SDS011;24934;52.752;6.964;2023-08-01T01:24:29;40.25;;;35.03;;
39218;SDS011;24934;52.752;6.964;2023-08-01T01:26:57;46.38;;;36.47;;
39218;SDS011;24934;52.752;6.964;2023-08-01T01:29:29;49.95;;;37.97;;
39218;SDS011;24934;52.752;6.964;2023-08-01T01:31:55;48.28;;;36.50;;
39218;SDS011;24934;52.752;6.964;2023-08-01T01:34:22;46.45;;;37.17;;
39218;SDS011;24934;52.752;6.964;2023-08-01T01:36:48;49.88;;;38.00;;
39218;SDS011;24934;52.752;6.964;2023-08-01T01:39:13;49.05;;;38.58;;
39218;SDS011;24934;52.752;6.964;2023-08-01T01:41:39;48.92;;;37.55;;
39218;SDS011;24934;52.752;6.964;2023-08-01T01:44:05;55.22;;;39.75;;
39218;SDS011;24934;52.752;6.964;2023-08-01T01:46:30;51.03;;;40.80;;
39218;SDS011;24934;52.752;6.964;2023-08-01T01:48:56;52.65;;;39.00;;
39218;SDS011;24934;52.752;6.964;2023-08-01T01:51:22;56.95;;;41.50;;
39218;SDS011;24934;52.752;6.964;2023-08-01T01:53:50;52.00;;;41.15;;
39218;SDS011;24934;52.752;6.964;2023-08-01T01:56:16;51.85;;;40.63;;
39218;SDS011;24934;52.752;6.964;2023-08-01T01:58:41;58.80;;;41.13;;
39218;SDS011;24934;52.752;6.964;2023-08-01T02:01:07;51.05;;;40.35;;
39218;SDS011;24934;52.752;6.964;2023-08-01T02:03:33;56.47;;;41.13;;
39218;SDS011;24934;52.752;6.964;2023-08-01T02:05:58;53.45;;;40.63;;
39218;SDS011;24934;52.752;6.964;2023-08-01T02:08:24;53.53;;;41.30;;
39218;SDS011;24934;52.752;6.964;2023-08-01T02:10:49;56.17;;;40.95;;
39218;SDS011;24934;52.752;6.964;2023-08-01T02:13:15;48.53;;;39.65;;
39218;SDS011;24934;52.752;6.964;2023-08-01T02:15:41;51.42;;;40.03;;
39218;SDS011;24934;52.752;6.964;2023-08-01T02:18:07;45.78;;;38.28;;
39218;SDS011;24934;52.752;6.964;2023-08-01T02:20:32;48.80;;;38.53;;
39218;SDS011;24934;52.752;6.964;2023-08-01T02:22:58;55.03;;;39.10;;
39218;SDS011;24934;52.752;6.964;2023-08-01T02:25:23;51.00;;;38.97;;
39218;SDS011;24934;52.752;6.964;2023-08-01T02:27:49;45.50;;;39.80;;
39218;SDS011;24934;52.752;6.964;2023-08-01T02:30:14;53.00;;;38.50;;
39218;SDS011;24934;52.752;6.964;2023-08-01T02:32:40;44.85;;;37.95;;
39218;SDS011;24934;52.752;6.964;2023-08-01T02:35:07;46.63;;;37.88;;
39218;SDS011;24934;52.752;6.964;2023-08-01T02:37:33;52.85;;;38.55;;
39218;SDS011;24934;52.752;6.964;2023-08-01T02:39:58;47.25;;;37.75;;
39218;SDS011;24934;52.752;6.964;2023-08-01T02:42:24;49.83;;;37.80;;
39218;SDS011;24934;52.752;6.964;2023-08-01T02:44:49;48.38;;;37.42;;
39218;SDS011;24934;52.752;6.964;2023-08-01T02:47:15;50.35;;;36.92;;
39218;SDS011;24934;52.752;6.964;2023-08-01T02:49:41;47.65;;;37.72;;
39218;SDS011;24934;52.752;6.964;2023-08-01T02:52:06;53.58;;;38.78;;
39218;SDS011;24934;52.752;6.964;2023-08-01T02:54:32;48.45;;;37.80;;
39218;SDS011;24934;52.752;6.964;2023-08-01T02:56:58;48.67;;;37.58;;
39218;SDS011;24934;52.752;6.964;2023-08-01T02:59:23;45.72;;;37.70;;
39218;SDS011;24934;52.752;6.964;2023-08-01T03:01:49;48.67;;;38.08;;
39218;SDS011;24934;52.752;6.964;2023-08-01T03:04:15;49.45;;;36.95;;
39218;SDS011;24934;52.752;6.964;2023-08-01T03:06:40;45.60;;;37.50;;
39218;SDS011;24934;52.752;6.964;2023-08-01T03:09:06;49.13;;;36.85;;
39218;SDS011;24934;52.752;6.964;2023-08-01T03:11:33;41.38;;;35.38;;
39218;SDS011;24934;52.752;6.964;2023-08-01T03:14:00;43.47;;;35.30;;
39218;SDS011;24934;52.752;6.964;2023-08-01T03:16:26;48.60;;;34.72;;
39218;SDS011;24934;52.752;6.964;2023-08-01T03:18:52;45.00;;;35.38;;
39218;SDS011;24934;52.752;6.964;2023-08-01T03:21:17;43.13;;;33.20;;
39218;SDS011;24934;52.752;6.964;2023-08-01T03:23:43;41.83;;;34.50;;
39218;SDS011;24934;52.752;6.964;2023-08-01T03:26:09;40.13;;;33.15;;
39218;SDS011;24934;52.752;6.964;2023-08-01T03:28:35;42.78;;;34.28;;
39218;SDS011;24934;52.752;6.964;2023-08-01T03:31:01;40.58;;;34.40;;
39218;SDS011;24934;52.752;6.964;2023-08-01T03:33:27;35.85;;;31.98;;
39218;SDS011;24934;52.752;6.964;2023-08-01T03:35:52;45.30;;;30.23;;
39218;SDS011;24934;52.752;6.964;2023-08-01T03:38:18;38.97;;;30.20;;
39218;SDS011;24934;52.752;6.964;2023-08-01T03:40:44;41.08;;;30.83;;
39218;SDS011;24934;52.752;6.964;2023-08-01T03:43:09;40.65;;;32.42;;
39218;SDS011;24934;52.752;6.964;2023-08-01T03:45:35;47.42;;;30.13;;
39218;SDS011;24934;52.752;6.964;2023-08-01T03:48:01;41.67;;;30.10;;
39218;SDS011;24934;52.752;6.964;2023-08-01T03:50:26;37.90;;;30.40;;
39218;SDS011;24934;52.752;6.964;2023-08-01T03:52:52;38.92;;;31.13;;
39218;SDS011;24934;52.752;6.964;2023-08-01T03:55:17;44.17;;;32.25;;
39218;SDS011;24934;52.752;6.964;2023-08-01T03:57:43;46.33;;;33.08;;
39218;SDS011;24934;52.752;6.964;2023-08-01T04:00:09;43.95;;;33.40;;
39218;SDS011;24934;52.752;6.964;2023-08-01T04:02:47;45.55;;;32.65;;
39218;SDS011;24934;52.752;6.964;2023-08-01T04:05:13;45.15;;;33.15;;
39218;SDS011;24934;52.752;6.964;2023-08-01T04:07:39;49.25;;;34.72;;
39218;SDS011;24934;52.752;6.964;2023-08-01T04:10:05;52.83;;;34.90;;
39218;SDS011;24934;52.752;6.964;2023-08-01T04:12:32;51.60;;;36.13;;
39218;SDS011;24934;52.752;6.964;2023-08-01T04:14:58;40.80;;;32.85;;
39218;SDS011;24934;52.752;6.964;2023-08-01T04:17:24;45.95;;;33.35;;
39218;SDS011;24934;52.752;6.964;2023-08-01T04:19:50;50.50;;;35.33;;
39218;SDS011;24934;52.752;6.964;2023-08-01T04:22:16;41.13;;;35.22;;
39218;SDS011;24934;52.752;6.964;2023-08-01T04:24:42;49.15;;;37.13;;
39218;SDS011;24934;52.752;6.964;2023-08-01T04:27:07;44.35;;;32.35;;
39218;SDS011;24934;52.752;6.964;2023-08-01T04:29:33;51.33;;;31.05;;
39218;SDS011;24934;52.752;6.964;2023-08-01T04:31:59;47.92;;;30.27;;
39218;SDS011;24934;52.752;6.964;2023-08-01T04:34:25;40.40;;;30.42;;
39218;SDS011;24934;52.752;6.964;2023-08-01T04:36:50;43.50;;;29.25;;
39218;SDS011;24934;52.752;6.964;2023-08-01T04:39:16;45.08;;;27.33;;
39218;SDS011;24934;52.752;6.964;2023-08-01T04:41:41;38.05;;;26.90;;
39218;SDS011;24934;52.752;6.964;2023-08-01T04:44:07;31.60;;;26.13;;
39218;SDS011;24934;52.752;6.964;2023-08-01T04:46:33;29.38;;;24.80;;
39218;SDS011;24934;52.752;6.964;2023-08-01T04:48:58;27.75;;;24.38;;
39218;SDS011;24934;52.752;6.964;2023-08-01T04:51:24;27.95;;;24.90;;
39218;SDS011;24934;52.752;6.964;2023-08-01T04:53:50;32.33;;;25.63;;
39218;SDS011;24934;52.752;6.964;2023-08-01T04:56:16;28.15;;;24.88;;
39218;SDS011;24934;52.752;6.964;2023-08-01T04:58:42;31.85;;;25.80;;
39218;SDS011;24934;52.752;6.964;2023-08-01T05:01:08;28.80;;;25.73;;
39218;SDS011;24934;52.752;6.964;2023-08-01T05:03:33;28.77;;;25.65;;
39218;SDS011;24934;52.752;6.964;2023-08-01T05:05:59;28.25;;;24.95;;
39218;SDS011;24934;52.752;6.964;2023-08-01T05:08:24;28.67;;;24.35;;
39218;SDS011;24934;52.752;6.964;2023-08-01T05:10:50;28.50;;;24.30;;
39218;SDS011;24934;52.752;6.964;2023-08-01T05:13:16;28.63;;;24.55;;
39218;SDS011;24934;52.752;6.964;2023-08-01T05:15:45;29.73;;;24.17;;
39218;SDS011;24934;52.752;6.964;2023-08-01T05:18:15;28.02;;;24.98;;
39218;SDS011;24934;52.752;6.964;2023-08-01T05:20:42;27.52;;;24.65;;
39218;SDS011;24934;52.752;6.964;2023-08-01T05:23:08;28.23;;;24.85;;
39218;SDS011;24934;52.752;6.964;2023-08-01T05:25:34;27.92;;;25.15;;
39218;SDS011;24934;52.752;6.964;2023-08-01T05:27:59;27.65;;;24.85;;
39218;SDS011;24934;52.752;6.964;2023-08-01T05:30:25;26.42;;;23.70;;
39218;SDS011;24934;52.752;6.964;2023-08-01T05:32:51;27.38;;;24.25;;
39218;SDS011;24934;52.752;6.964;2023-08-01T05:35:17;27.25;;;23.77;;
39218;SDS011;24934;52.752;6.964;2023-08-01T05:37:43;24.77;;;22.25;;
39218;SDS011;24934;52.752;6.964;2023-08-01T05:40:09;25.13;;;21.70;;
39218;SDS011;24934;52.752;6.964;2023-08-01T05:42:35;24.38;;;22.08;;
39218;SDS011;24934;52.752;6.964;2023-08-01T05:45:00;25.95;;;22.35;;
39218;SDS011;24934;52.752;6.964;2023-08-01T05:47:26;26.02;;;23.20;;
39218;SDS011;24934;52.752;6.964;2023-08-01T05:49:52;26.83;;;22.27;;
39218;SDS011;24934;52.752;6.964;2023-08-01T05:52:17;27.48;;;23.02;;
39218;SDS011;24934;52.752;6.964;2023-08-01T05:54:43;25.50;;;22.55;;
39218;SDS011;24934;52.752;6.964;2023-08-01T05:57:09;32.95;;;25.67;;
39218;SDS011;24934;52.752;6.964;2023-08-01T05:59:34;32.92;;;25.42;;
39218;SDS011;24934;52.752;6.964;2023-08-01T06:02:00;31.40;;;25.45;;
39218;SDS011;24934;52.752;6.964;2023-08-01T06:04:26;28.65;;;23.95;;
39218;SDS011;24934;52.752;6.964;2023-08-01T06:06:52;29.25;;;23.50;;
39218;SDS011;24934;52.752;6.964;2023-08-01T06:09:17;25.40;;;22.40;;
39218;SDS011;24934;52.752;6.964;2023-08-01T06:11:43;27.75;;;23.60;;
39218;SDS011;24934;52.752;6.964;2023-08-01T06:14:09;27.33;;;23.30;;
39218;SDS011;24934;52.752;6.964;2023-08-01T06:16:35;32.00;;;24.13;;
39218;SDS011;24934;52.752;6.964;2023-08-01T06:19:00;26.40;;;23.60;;
39218;SDS011;24934;52.752;6.964;2023-08-01T06:21:26;31.02;;;23.30;;
39218;SDS011;24934;52.752;6.964;2023-08-01T06:23:52;25.02;;;22.40;;
39218;SDS011;24934;52.752;6.964;2023-08-01T06:26:18;25.77;;;22.42;;
39218;SDS011;24934;52.752;6.964;2023-08-01T06:28:43;26.52;;;21.25;;
39218;SDS011;24934;52.752;6.964;2023-08-01T06:31:09;22.98;;;20.55;;
39218;SDS011;24934;52.752;6.964;2023-08-01T06:33:34;22.88;;;20.45;;
39218;SDS011;24934;52.752;6.964;2023-08-01T06:36:00;21.70;;;19.55;;
39218;SDS011;24934;52.752;6.964;2023-08-01T06:38:26;23.40;;;19.95;;
39218;SDS011;24934;52.752;6.964;2023-08-01T06:40:51;23.08;;;20.80;;
39218;SDS011;24934;52.752;6.964;2023-08-01T06:43:17;23.75;;;21.35;;
39218;SDS011;24934;52.752;6.964;2023-08-01T06:45:43;24.50;;;21.77;;
39218;SDS011;24934;52.752;6.964;2023-08-01T06:48:08;25.88;;;23.25;;
39218;SDS011;24934;52.752;6.964;2023-08-01T06:50:34;25.88;;;22.85;;
39218;SDS011;24934;52.752;6.964;2023-08-01T06:53:00;26.88;;;22.65;;
39218;SDS011;24934;52.752;6.964;2023-08-01T06:55:26;25.33;;;22.70;;
39218;SDS011;24934;52.752;6.964;2023-08-01T06:57:52;30.00;;;22.67;;
39218;SDS011;24934;52.752;6.964;2023-08-01T07:00:18;32.15;;;22.83;;
39218;SDS011;24934;52.752;6.964;2023-08-01T07:02:43;30.48;;;23.17;;
39218;SDS011;24934;52.752;6.964;2023-08-01T07:05:09;28.85;;;22.25;;
39218;SDS011;24934;52.752;6.964;2023-08-01T07:07:35;24.58;;;20.58;;
39218;SDS011;24934;52.752;6.964;2023-08-01T07:10:01;21.40;;;19.20;;
39218;SDS011;24934;52.752;6.964;2023-08-01T07:12:26;19.85;;;17.90;;
39218;SDS011;24934;52.752;6.964;2023-08-01T07:14:52;20.33;;;18.08;;
39218;SDS011;24934;52.752;6.964;2023-08-01T07:17:18;20.65;;;18.38;;
39218;SDS011;24934;52.752;6.964;2023-08-01T07:19:43;21.48;;;18.77;;
39218;SDS011;24934;52.752;6.964;2023-08-01T07:22:09;20.13;;;17.95;;
39218;SDS011;24934;52.752;6.964;2023-08-01T07:24:34;22.95;;;18.00;;
39218;SDS011;24934;52.752;6.964;2023-08-01T07:27:00;20.50;;;17.45;;
39218;SDS011;24934;52.752;6.964;2023-08-01T07:29:26;23.58;;;18.02;;
39218;SDS011;24934;52.752;6.964;2023-08-01T07:31:51;18.58;;;16.63;;
39218;SDS011;24934;52.752;6.964;2023-08-01T07:34:17;20.88;;;17.73;;
39218;SDS011;24934;52.752;6.964;2023-08-01T07:36:43;22.08;;;17.45;;
39218;SDS011;24934;52.752;6.964;2023-08-01T07:39:10;20.10;;;15.95;;
39218;SDS011;24934;52.752;6.964;2023-08-01T07:41:36;17.83;;;16.02;;
39218;SDS011;24934;52.752;6.964;2023-08-01T07:44:02;16.95;;;15.07;;
39218;SDS011;24934;52.752;6.964;2023-08-01T07:46:31;15.18;;;13.82;;
39218;SDS011;24934;52.752;6.964;2023-08-01T07:48:57;16.95;;;14.98;;
39218;SDS011;24934;52.752;6.964;2023-08-01T07:51:24;14.63;;;13.30;;
39218;SDS011;24934;52.752;6.964;2023-08-01T07:53:51;15.10;;;13.68;;
39218;SDS011;24934;52.752;6.964;2023-08-01T07:56:18;15.40;;;13.80;;
39218;SDS011;24934;52.752;6.964;2023-08-01T07:58:44;15.57;;;13.82;;
39218;SDS011;24934;52.752;6.964;2023-08-01T08:01:10;15.02;;;13.45;;
39218;SDS011;24934;52.752;6.964;2023-08-01T08:03:36;15.55;;;13.95;;
39218;SDS011;24934;52.752;6.964;2023-08-01T08:06:02;16.13;;;14.60;;
39218;SDS011;24934;52.752;6.964;2023-08-01T08:08:29;15.45;;;13.85;;
39218;SDS011;24934;52.752;6.964;2023-08-01T08:10:55;16.20;;;14.75;;
39218;SDS011;24934;52.752;6.964;2023-08-01T08:13:20;17.63;;;14.57;;
39218;SDS011;24934;52.752;6.964;2023-08-01T08:15:46;18.20;;;15.73;;
39218;SDS011;24934;52.752;6.964;2023-08-01T08:18:12;19.80;;;17.80;;
39218;SDS011;24934;52.752;6.964;2023-08-01T08:20:44;19.67;;;17.77;;
39218;SDS011;24934;52.752;6.964;2023-08-01T08:23:11;20.65;;;18.95;;
39218;SDS011;24934;52.752;6.964;2023-08-01T08:25:40;22.85;;;20.70;;
39218;SDS011;24934;52.752;6.964;2023-08-01T08:28:06;21.27;;;19.30;;
39218;SDS011;24934;52.752;6.964;2023-08-01T08:30:35;22.55;;;20.15;;
39218;SDS011;24934;52.752;6.964;2023-08-01T08:33:01;21.15;;;18.95;;
39218;SDS011;24934;52.752;6.964;2023-08-01T08:35:29;22.30;;;20.10;;
39218;SDS011;24934;52.752;6.964;2023-08-01T08:37:55;22.65;;;20.02;;
39218;SDS011;24934;52.752;6.964;2023-08-01T08:40:23;23.20;;;19.30;;
39218;SDS011;24934;52.752;6.964;2023-08-01T08:42:49;19.50;;;17.70;;
39218;SDS011;24934;52.752;6.964;2023-08-01T08:45:18;18.92;;;17.10;;
39218;SDS011;24934;52.752;6.964;2023-08-01T08:47:45;18.70;;;17.00;;
39218;SDS011;24934;52.752;6.964;2023-08-01T08:50:16;19.65;;;17.75;;
39218;SDS011;24934;52.752;6.964;2023-08-01T08:52:43;18.88;;;17.05;;
39218;SDS011;24934;52.752;6.964;2023-08-01T08:55:10;20.00;;;18.02;;
39218;SDS011;24934;52.752;6.964;2023-08-01T08:57:36;20.08;;;18.15;;
39218;SDS011;24934;52.752;6.964;2023-08-01T09:00:04;20.40;;;18.33;;
39218;SDS011;24934;52.752;6.964;2023-08-01T09:02:32;20.70;;;18.60;;
39218;SDS011;24934;52.752;6.964;2023-08-01T09:04:58;20.88;;;18.73;;
39218;SDS011;24934;52.752;6.964;2023-08-01T09:07:24;24.45;;;19.80;;
39218;SDS011;24934;52.752;6.964;2023-08-01T09:09:55;22.58;;;18.83;;
39218;SDS011;24934;52.752;6.964;2023-08-01T09:12:21;20.52;;;18.00;;
39218;SDS011;24934;52.752;6.964;2023-08-01T09:14:53;21.05;;;17.45;;
39218;SDS011;24934;52.752;6.964;2023-08-01T09:17:22;19.63;;;17.60;;
39218;SDS011;24934;52.752;6.964;2023-08-01T09:19:47;20.00;;;18.05;;
39218;SDS011;24934;52.752;6.964;2023-08-01T09:22:13;23.23;;;19.92;;
39218;SDS011;24934;52.752;6.964;2023-08-01T09:24:39;22.45;;;20.25;;
39218;SDS011;24934;52.752;6.964;2023-08-01T09:27:15;25.40;;;20.23;;
39218;SDS011;24934;52.752;6.964;2023-08-01T09:29:41;22.95;;;20.35;;
39218;SDS011;24934;52.752;6.964;2023-08-01T09:32:13;21.63;;;19.30;;
39218;SDS011;24934;52.752;6.964;2023-08-01T09:34:40;26.80;;;20.83;;
39218;SDS011;24934;52.752;6.964;2023-08-01T09:37:07;21.48;;;19.17;;
39218;SDS011;24934;52.752;6.964;2023-08-01T09:39:33;20.20;;;17.17;;
39218;SDS011;24934;52.752;6.964;2023-08-01T09:41:59;22.17;;;16.27;;
39218;SDS011;24934;52.752;6.964;2023-08-01T09:44:26;22.13;;;16.38;;
39218;SDS011;24934;52.752;6.964;2023-08-01T09:46:56;28.23;;;17.15;;
39218;SDS011;24934;52.752;6.964;2023-08-01T09:49:25;22.60;;;17.30;;
39218;SDS011;24934;52.752;6.964;2023-08-01T09:51:51;19.17;;;16.90;;
39218;SDS011;24934;52.752;6.964;2023-08-01T09:54:17;22.80;;;18.15;;
39218;SDS011;24934;52.752;6.964;2023-08-01T09:56:44;19.95;;;16.60;;
39218;SDS011;24934;52.752;6.964;2023-08-01T09:59:10;23.38;;;17.70;;
39218;SDS011;24934;52.752;6.964;2023-08-01T10:01:38;19.33;;;17.30;;
39218;SDS011;24934;52.752;6.964;2023-08-01T10:04:05;20.48;;;16.60;;
39218;SDS011;24934;52.752;6.964;2023-08-01T10:06:34;19.58;;;17.05;;
39218;SDS011;24934;52.752;6.964;2023-08-01T10:09:02;24.98;;;17.42;;
39218;SDS011;24934;52.752;6.964;2023-08-01T10:11:29;22.13;;;17.55;;
39218;SDS011;24934;52.752;6.964;2023-08-01T10:13:59;24.00;;;17.60;;
39218;SDS011;24934;52.752;6.964;2023-08-01T10:16:27;19.77;;;17.40;;
39218;SDS011;24934;52.752;6.964;2023-08-01T10:18:53;23.15;;;18.75;;
39218;SDS011;24934;52.752;6.964;2023-08-01T10:21:19;23.45;;;18.33;;
39218;SDS011;24934;52.752;6.964;2023-08-01T10:23:46;27.25;;;19.17;;
39218;SDS011;24934;52.752;6.964;2023-08-01T10:26:12;25.83;;;17.67;;
39218;SDS011;24934;52.752;6.964;2023-08-01T10:28:40;19.77;;;16.30;;
39218;SDS011;24934;52.752;6.964;2023-08-01T10:31:10;20.42;;;18.00;;
39218;SDS011;24934;52.752;6.964;2023-08-01T10:33:40;21.50;;;17.88;;
39218;SDS011;24934;52.752;6.964;2023-08-01T10:38:48;17.52;;;15.77;;
39218;SDS011;24934;52.752;6.964;2023-08-01T10:41:25;18.25;;;15.68;;
39218;SDS011;24934;52.752;6.964;2023-08-01T10:43:51;17.70;;;16.00;;
39218;SDS011;24934;52.752;6.964;2023-08-01T10:46:17;18.42;;;16.45;;
39218;SDS011;24934;52.752;6.964;2023-08-01T10:48:50;25.08;;;17.13;;
39218;SDS011;24934;52.752;6.964;2023-08-01T10:51:16;18.55;;;16.63;;
39218;SDS011;24934;52.752;6.964;2023-08-01T10:53:42;18.13;;;15.13;;
39218;SDS011;24934;52.752;6.964;2023-08-01T10:56:15;15.90;;;14.45;;
39218;SDS011;24934;52.752;6.964;2023-08-01T10:58:44;15.13;;;13.82;;
39218;SDS011;24934;52.752;6.964;2023-08-01T11:01:11;16.38;;;14.98;;
39218;SDS011;24934;52.752;6.964;2023-08-01T11:03:37;18.20;;;16.00;;
39218;SDS011;24934;52.752;6.964;2023-08-01T11:06:04;17.75;;;16.00;;
39218;SDS011;24934;52.752;6.964;2023-08-01T11:11:10;17.98;;;16.27;;
39218;SDS011;24934;52.752;6.964;2023-08-01T11:13:38;17.00;;;15.40;;
39218;SDS011;24934;52.752;6.964;2023-08-01T11:16:04;17.88;;;15.25;;
39218;SDS011;24934;52.752;6.964;2023-08-01T11:18:40;16.98;;;14.50;;
39218;SDS011;24934;52.752;6.964;2023-08-01T11:21:12;16.60;;;13.88;;
39218;SDS011;24934;52.752;6.964;2023-08-01T11:23:37;16.10;;;14.48;;
39218;SDS011;24934;52.752;6.964;2023-08-01T11:26:07;16.85;;;13.52;;
39218;SDS011;24934;52.752;6.964;2023-08-01T11:28:34;14.65;;;13.10;;
39218;SDS011;24934;52.752;6.964;2023-08-01T11:30:59;15.68;;;14.18;;
39218;SDS011;24934;52.752;6.964;2023-08-01T11:33:25;15.85;;;14.18;;
39218;SDS011;24934;52.752;6.964;2023-08-01T11:35:54;16.30;;;14.88;;
39218;SDS011;24934;52.752;6.964;2023-08-01T11:38:28;16.40;;;15.10;;
39218;SDS011;24934;52.752;6.964;2023-08-01T11:40:56;17.88;;;16.27;;
39218;SDS011;24934;52.752;6.964;2023-08-01T11:43:22;17.40;;;15.75;;
39218;SDS011;24934;52.752;6.964;2023-08-01T11:45:49;18.02;;;16.17;;
39218;SDS011;24934;52.752;6.964;2023-08-01T11:48:15;17.60;;;15.90;;
39218;SDS011;24934;52.752;6.964;2023-08-01T11:50:41;18.05;;;16.45;;
39218;SDS011;24934;52.752;6.964;2023-08-01T11:53:17;19.35;;;17.27;;
39218;SDS011;24934;52.752;6.964;2023-08-01T11:55:46;19.90;;;17.75;;
39218;SDS011;24934;52.752;6.964;2023-08-01T11:58:12;18.77;;;16.90;;
39218;SDS011;24934;52.752;6.964;2023-08-01T12:00:39;19.80;;;17.80;;
39218;SDS011;24934;52.752;6.964;2023-08-01T12:03:06;18.27;;;16.40;;
39218;SDS011;24934;52.752;6.964;2023-08-01T12:05:37;18.25;;;15.68;;
39218;SDS011;24934;52.752;6.964;2023-08-01T12:08:09;17.58;;;15.98;;
39218;SDS011;24934;52.752;6.964;2023-08-01T12:10:42;18.05;;;16.48;;
39218;SDS011;24934;52.752;6.964;2023-08-01T12:13:19;20.10;;;18.13;;
39218;SDS011;24934;52.752;6.964;2023-08-01T12:15:47;20.55;;;18.55;;
39218;SDS011;24934;52.752;6.964;2023-08-01T12:18:20;18.60;;;16.85;;
39218;SDS011;24934;52.752;6.964;2023-08-01T12:20:47;17.30;;;15.60;;
39218;SDS011;24934;52.752;6.964;2023-08-01T12:23:12;18.60;;;16.73;;
39218;SDS011;24934;52.752;6.964;2023-08-01T12:25:38;17.80;;;16.20;;
39218;SDS011;24934;52.752;6.964;2023-08-01T12:28:03;18.48;;;16.70;;
39218;SDS011;24934;52.752;6.964;2023-08-01T12:30:29;18.35;;;16.58;;
39218;SDS011;24934;52.752;6.964;2023-08-01T12:32:55;17.02;;;15.45;;
39218;SDS011;24934;52.752;6.964;2023-08-01T12:35:21;16.52;;;15.13;;
39218;SDS011;24934;52.752;6.964;2023-08-01T12:37:46;15.98;;;14.43;;
39218;SDS011;24934;52.752;6.964;2023-08-01T12:40:12;15.98;;;14.48;;
39218;SDS011;24934;52.752;6.964;2023-08-01T12:42:37;15.57;;;14.07;;
39218;SDS011;24934;52.752;6.964;2023-08-01T12:45:03;17.27;;;14.85;;
39218;SDS011;24934;52.752;6.964;2023-08-01T12:47:29;15.93;;;13.70;;
39218;SDS011;24934;52.752;6.964;2023-08-01T12:49:55;15.90;;;14.23;;
39218;SDS011;24934;52.752;6.964;2023-08-01T12:52:24;15.68;;;14.32;;
39218;SDS011;24934;52.752;6.964;2023-08-01T12:54:50;15.90;;;14.57;;
39218;SDS011;24934;52.752;6.964;2023-08-01T12:57:16;18.58;;;16.67;;
39218;SDS011;24934;52.752;6.964;2023-08-01T12:59:42;18.13;;;16.33;;
39218;SDS011;24934;52.752;6.964;2023-08-01T13:02:07;18.88;;;16.98;;
39218;SDS011;24934;52.752;6.964;2023-08-01T13:04:33;17.65;;;15.85;;
39218;SDS011;24934;52.752;6.964;2023-08-01T13:06:59;19.00;;;17.10;;
39218;SDS011;24934;52.752;6.964;2023-08-01T13:09:25;17.08;;;15.43;;
39218;SDS011;24934;52.752;6.964;2023-08-01T13:11:51;16.73;;;14.93;;
39218;SDS011;24934;52.752;6.964;2023-08-01T13:14:17;16.95;;;15.18;;
39218;SDS011;24934;52.752;6.964;2023-08-01T13:16:42;15.88;;;14.55;;
39218;SDS011;24934;52.752;6.964;2023-08-01T13:19:08;16.25;;;14.55;;
39218;SDS011;24934;52.752;6.964;2023-08-01T13:21:34;17.38;;;14.45;;
39218;SDS011;24934;52.752;6.964;2023-08-01T13:24:00;14.73;;;13.13;;
39218;SDS011;24934;52.752;6.964;2023-08-01T13:26:31;16.88;;;15.23;;
39218;SDS011;24934;52.752;6.964;2023-08-01T13:28:57;17.05;;;14.70;;
39218;SDS011;24934;52.752;6.964;2023-08-01T13:31:24;16.95;;;15.25;;
39218;SDS011;24934;52.752;6.964;2023-08-01T13:33:50;17.73;;;16.08;;
39218;SDS011;24934;52.752;6.964;2023-08-01T13:36:17;15.50;;;14.10;;
39218;SDS011;24934;52.752;6.964;2023-08-01T13:38:43;15.30;;;13.77;;
39218;SDS011;24934;52.752;6.964;2023-08-01T13:41:09;15.60;;;14.05;;
39218;SDS011;24934;52.752;6.964;2023-08-01T13:43:35;17.40;;;14.25;;
39218;SDS011;24934;52.752;6.964;2023-08-01T13:46:01;20.35;;;15.45;;
39218;SDS011;24934;52.752;6.964;2023-08-01T13:48:32;17.38;;;15.70;;
39218;SDS011;24934;52.752;6.964;2023-08-01T13:50:58;17.15;;;15.55;;
39218;SDS011;24934;52.752;6.964;2023-08-01T13:53:24;17.55;;;15.90;;
39218;SDS011;24934;52.752;6.964;2023-08-01T13:55:49;16.25;;;14.73;;
39218;SDS011;24934;52.752;6.964;2023-08-01T13:58:15;15.90;;;14.27;;
39218;SDS011;24934;52.752;6.964;2023-08-01T14:00:40;16.42;;;14.93;;
39218;SDS011;24934;52.752;6.964;2023-08-01T14:03:06;16.25;;;14.48;;
39218;SDS011;24934;52.752;6.964;2023-08-01T14:05:32;17.10;;;15.30;;
39218;SDS011;24934;52.752;6.964;2023-08-01T14:07:57;16.42;;;14.70;;
39218;SDS011;24934;52.752;6.964;2023-08-01T14:10:25;15.65;;;14.35;;
39218;SDS011;24934;52.752;6.964;2023-08-01T14:12:50;16.58;;;14.95;;
39218;SDS011;24934;52.752;6.964;2023-08-01T14:15:16;14.35;;;13.15;;
39218;SDS011;24934;52.752;6.964;2023-08-01T14:17:42;14.45;;;13.20;;
39218;SDS011;24934;52.752;6.964;2023-08-01T14:20:08;15.10;;;13.63;;
39218;SDS011;24934;52.752;6.964;2023-08-01T14:22:34;17.25;;;13.50;;